sensor_id;sensor_type;location;lat;lon;timestamp;P1;durP1;ratioP1;P2;durP2;ratioP2
25846;SDS011;13676;50.168;8.568;2022-08-25T00:00:48;1.60;;;1.20;;
25846;SDS011;13676;50.168;8.568;2022-08-25T00:03:14;3.38;;;1.40;;
25846;SDS011;13676;50.168;8.568;2022-08-25T00:05:39;2.58;;;1.50;;
25846;SDS011;13676;50.168;8.568;2022-08-25T00:08:05;1.92;;;1.42;;
25846;SDS011;13676;50.168;8.568;2022-08-25T00:10:33;3.83;;;1.60;;
25846;SDS011;13676;50.168;8.568;2022-08-25T00:12:59;1.80;;;1.27;;
25846;SDS011;13676;50.168;8.568;2022-08-25T00:15:26;2.50;;;1.17;;
25846;SDS011;13676;50.168;8.568;2022-08-25T00:17:52;2.65;;;1.40;;
25846;SDS011;13676;50.168;8.568;2022-08-25T00:20:18;1.90;;;1.00;;
25846;SDS011;13676;50.168;8.568;2022-08-25T00:22:43;3.05;;;1.50;;
25846;SDS011;13676;50.168;8.568;2022-08-25T00:25:09;1.83;;;1.25;;
25846;SDS011;13676;50.168;8.568;2022-08-25T00:27:34;2.95;;;1.50;;
25846;SDS011;13676;50.168;8.568;2022-08-25T00:30:00;1.40;;;1.30;;
25846;SDS011;13676;50.168;8.568;2022-08-25T00:32:25;2.45;;;1.20;;
25846;SDS011;13676;50.168;8.568;2022-08-25T00:34:51;1.20;;;1.10;;
25846;SDS011;13676;50.168;8.568;2022-08-25T00:37:17;2.38;;;1.60;;
25846;SDS011;13676;50.168;8.568;2022-08-25T00:39:43;1.77;;;1.63;;
25846;SDS011;13676;50.168;8.568;2022-08-25T00:42:08;2.30;;;1.83;;
25846;SDS011;13676;50.168;8.568;2022-08-25T00:44:34;1.50;;;1.40;;
25846;SDS011;13676;50.168;8.568;2022-08-25T00:47:00;2.20;;;1.70;;
25846;SDS011;13676;50.168;8.568;2022-08-25T00:49:48;6.25;;;2.05;;
25846;SDS011;13676;50.168;8.568;2022-08-25T00:52:24;2.03;;;1.50;;
25846;SDS011;13676;50.168;8.568;2022-08-25T00:54:58;1.67;;;1.40;;
25846;SDS011;13676;50.168;8.568;2022-08-25T00:57:29;1.67;;;1.48;;
25846;SDS011;13676;50.168;8.568;2022-08-25T00:59:59;5.15;;;1.80;;
25846;SDS011;13676;50.168;8.568;2022-08-25T01:02:24;2.38;;;1.63;;
25846;SDS011;13676;50.168;8.568;2022-08-25T01:04:50;1.75;;;1.42;;
25846;SDS011;13676;50.168;8.568;2022-08-25T01:07:16;2.80;;;1.63;;
25846;SDS011;13676;50.168;8.568;2022-08-25T01:09:42;3.33;;;1.88;;
25846;SDS011;13676;50.168;8.568;2022-08-25T01:12:08;2.22;;;1.90;;
25846;SDS011;13676;50.168;8.568;2022-08-25T01:14:34;2.05;;;1.70;;
25846;SDS011;13676;50.168;8.568;2022-08-25T01:17:00;3.00;;;1.73;;
25846;SDS011;13676;50.168;8.568;2022-08-25T01:19:26;3.65;;;1.67;;
25846;SDS011;13676;50.168;8.568;2022-08-25T01:21:52;2.20;;;1.50;;
25846;SDS011;13676;50.168;8.568;2022-08-25T01:27:05;2.95;;;1.90;;
25846;SDS011;13676;50.168;8.568;2022-08-25T01:29:31;2.05;;;1.67;;
25846;SDS011;13676;50.168;8.568;2022-08-25T01:31:57;3.85;;;1.90;;
25846;SDS011;13676;50.168;8.568;2022-08-25T01:34:25;2.00;;;1.40;;
25846;SDS011;13676;50.168;8.568;2022-08-25T01:36:52;3.40;;;2.00;;
25846;SDS011;13676;50.168;8.568;2022-08-25T01:39:18;1.92;;;1.73;;
25846;SDS011;13676;50.168;8.568;2022-08-25T01:44:19;2.60;;;1.80;;
25846;SDS011;13676;50.168;8.568;2022-08-25T01:46:44;2.33;;;1.70;;
25846;SDS011;13676;50.168;8.568;2022-08-25T01:49:10;2.72;;;1.75;;
25846;SDS011;13676;50.168;8.568;2022-08-25T01:51:42;2.53;;;2.00;;
25846;SDS011;13676;50.168;8.568;2022-08-25T01:54:12;2.50;;;1.90;;
25846;SDS011;13676;50.168;8.568;2022-08-25T01:56:37;2.03;;;1.48;;
25846;SDS011;13676;50.168;8.568;2022-08-25T01:59:02;3.13;;;1.90;;
25846;SDS011;13676;50.168;8.568;2022-08-25T02:01:29;2.50;;;1.70;;
25846;SDS011;13676;50.168;8.568;2022-08-25T02:03:54;5.00;;;2.10;;
25846;SDS011;13676;50.168;8.568;2022-08-25T02:06:25;2.40;;;2.13;;
25846;SDS011;13676;50.168;8.568;2022-08-25T02:08:57;2.13;;;1.73;;
25846;SDS011;13676;50.168;8.568;2022-08-25T02:11:25;2.85;;;2.13;;
25846;SDS011;13676;50.168;8.568;2022-08-25T02:13:51;2.28;;;2.05;;
25846;SDS011;13676;50.168;8.568;2022-08-25T02:16:25;4.60;;;2.38;;
25846;SDS011;13676;50.168;8.568;2022-08-25T02:18:53;2.47;;;1.85;;
25846;SDS011;13676;50.168;8.568;2022-08-25T02:21:18;6.47;;;2.10;;
25846;SDS011;13676;50.168;8.568;2022-08-25T02:23:44;2.47;;;1.80;;
25846;SDS011;13676;50.168;8.568;2022-08-25T02:26:09;3.03;;;1.88;;
25846;SDS011;13676;50.168;8.568;2022-08-25T02:28:35;2.78;;;2.10;;
25846;SDS011;13676;50.168;8.568;2022-08-25T02:31:01;3.10;;;2.22;;
25846;SDS011;13676;50.168;8.568;2022-08-25T02:33:28;1.70;;;1.60;;
25846;SDS011;13676;50.168;8.568;2022-08-25T02:35:55;1.98;;;1.80;;
25846;SDS011;13676;50.168;8.568;2022-08-25T02:38:22;2.95;;;2.17;;
25846;SDS011;13676;50.168;8.568;2022-08-25T02:40:47;2.55;;;2.22;;
25846;SDS011;13676;50.168;8.568;2022-08-25T02:43:14;2.80;;;2.35;;
25846;SDS011;13676;50.168;8.568;2022-08-25T02:45:39;4.30;;;2.60;;
25846;SDS011;13676;50.168;8.568;2022-08-25T02:48:05;2.95;;;1.95;;
25846;SDS011;13676;50.168;8.568;2022-08-25T02:50:30;3.38;;;2.25;;
25846;SDS011;13676;50.168;8.568;2022-08-25T02:52:56;2.20;;;2.00;;
25846;SDS011;13676;50.168;8.568;2022-08-25T02:55:22;3.55;;;2.40;;
25846;SDS011;13676;50.168;8.568;2022-08-25T02:57:47;2.80;;;2.40;;
25846;SDS011;13676;50.168;8.568;2022-08-25T03:00:13;4.47;;;2.50;;
25846;SDS011;13676;50.168;8.568;2022-08-25T03:02:40;2.63;;;2.15;;
25846;SDS011;13676;50.168;8.568;2022-08-25T03:05:06;4.20;;;2.42;;
25846;SDS011;13676;50.168;8.568;2022-08-25T03:07:32;2.60;;;2.38;;
25846;SDS011;13676;50.168;8.568;2022-08-25T03:09:58;2.90;;;2.60;;
25846;SDS011;13676;50.168;8.568;2022-08-25T03:12:23;3.08;;;2.20;;
25846;SDS011;13676;50.168;8.568;2022-08-25T03:14:49;3.13;;;2.50;;
25846;SDS011;13676;50.168;8.568;2022-08-25T03:17:14;3.25;;;2.47;;
25846;SDS011;13676;50.168;8.568;2022-08-25T03:19:40;3.30;;;2.67;;
25846;SDS011;13676;50.168;8.568;2022-08-25T03:22:05;3.70;;;2.47;;
25846;SDS011;13676;50.168;8.568;2022-08-25T03:24:30;4.07;;;3.00;;
25846;SDS011;13676;50.168;8.568;2022-08-25T03:26:56;4.68;;;2.60;;
25846;SDS011;13676;50.168;8.568;2022-08-25T03:29:25;3.90;;;2.58;;
25846;SDS011;13676;50.168;8.568;2022-08-25T03:31:55;3.28;;;2.97;;
25846;SDS011;13676;50.168;8.568;2022-08-25T03:34:22;4.65;;;3.00;;
25846;SDS011;13676;50.168;8.568;2022-08-25T03:36:49;3.50;;;2.63;;
25846;SDS011;13676;50.168;8.568;2022-08-25T03:39:16;5.20;;;2.80;;
25846;SDS011;13676;50.168;8.568;2022-08-25T03:41:42;4.30;;;2.60;;
25846;SDS011;13676;50.168;8.568;2022-08-25T03:44:08;5.38;;;3.03;;
25846;SDS011;13676;50.168;8.568;2022-08-25T03:46:40;2.92;;;2.63;;
25846;SDS011;13676;50.168;8.568;2022-08-25T03:49:11;3.72;;;3.28;;
25846;SDS011;13676;50.168;8.568;2022-08-25T03:51:40;3.65;;;3.35;;
25846;SDS011;13676;50.168;8.568;2022-08-25T03:54:08;3.80;;;2.78;;
25846;SDS011;13676;50.168;8.568;2022-08-25T03:58:59;5.47;;;3.30;;
25846;SDS011;13676;50.168;8.568;2022-08-25T04:01:25;7.65;;;3.72;;
25846;SDS011;13676;50.168;8.568;2022-08-25T04:03:50;5.45;;;2.97;;
25846;SDS011;13676;50.168;8.568;2022-08-25T04:06:16;3.80;;;3.10;;
25846;SDS011;13676;50.168;8.568;2022-08-25T04:08:42;7.15;;;3.30;;
25846;SDS011;13676;50.168;8.568;2022-08-25T04:11:09;3.63;;;3.30;;
25846;SDS011;13676;50.168;8.568;2022-08-25T04:13:37;4.03;;;3.28;;
25846;SDS011;13676;50.168;8.568;2022-08-25T04:16:08;5.00;;;3.25;;
25846;SDS011;13676;50.168;8.568;2022-08-25T04:18:36;4.28;;;3.20;;
25846;SDS011;13676;50.168;8.568;2022-08-25T04:21:03;4.70;;;3.70;;
25846;SDS011;13676;50.168;8.568;2022-08-25T04:23:29;4.00;;;3.60;;
25846;SDS011;13676;50.168;8.568;2022-08-25T04:25:54;3.28;;;2.92;;
25846;SDS011;13676;50.168;8.568;2022-08-25T04:28:20;5.57;;;4.00;;
25846;SDS011;13676;50.168;8.568;2022-08-25T04:30:45;3.40;;;3.10;;
25846;SDS011;13676;50.168;8.568;2022-08-25T04:33:10;4.60;;;2.53;;
25846;SDS011;13676;50.168;8.568;2022-08-25T04:35:37;5.03;;;3.10;;
25846;SDS011;13676;50.168;8.568;2022-08-25T04:38:03;4.25;;;3.30;;
25846;SDS011;13676;50.168;8.568;2022-08-25T04:40:28;5.88;;;3.42;;
25846;SDS011;13676;50.168;8.568;2022-08-25T04:42:53;7.70;;;3.90;;
25846;SDS011;13676;50.168;8.568;2022-08-25T04:45:19;5.75;;;3.90;;
25846;SDS011;13676;50.168;8.568;2022-08-25T04:47:44;4.30;;;3.80;;
25846;SDS011;13676;50.168;8.568;2022-08-25T04:50:09;4.85;;;3.92;;
25846;SDS011;13676;50.168;8.568;2022-08-25T04:52:35;5.88;;;4.45;;
25846;SDS011;13676;50.168;8.568;2022-08-25T04:55:01;3.78;;;3.17;;
25846;SDS011;13676;50.168;8.568;2022-08-25T04:57:27;6.00;;;3.70;;
25846;SDS011;13676;50.168;8.568;2022-08-25T04:59:53;3.80;;;3.35;;
25846;SDS011;13676;50.168;8.568;2022-08-25T05:02:19;7.47;;;4.10;;
25846;SDS011;13676;50.168;8.568;2022-08-25T05:04:45;5.15;;;4.05;;
25846;SDS011;13676;50.168;8.568;2022-08-25T05:07:10;4.65;;;4.22;;
25846;SDS011;13676;50.168;8.568;2022-08-25T05:09:35;5.35;;;3.88;;
25846;SDS011;13676;50.168;8.568;2022-08-25T05:12:02;8.90;;;3.63;;
25846;SDS011;13676;50.168;8.568;2022-08-25T05:14:28;3.70;;;3.30;;
25846;SDS011;13676;50.168;8.568;2022-08-25T05:16:53;7.72;;;3.97;;
25846;SDS011;13676;50.168;8.568;2022-08-25T05:24:13;7.93;;;4.72;;
25846;SDS011;13676;50.168;8.568;2022-08-25T05:26:38;5.20;;;4.70;;
25846;SDS011;13676;50.168;8.568;2022-08-25T05:29:04;7.07;;;4.45;;
25846;SDS011;13676;50.168;8.568;2022-08-25T05:31:29;8.57;;;4.60;;
25846;SDS011;13676;50.168;8.568;2022-08-25T05:33:55;7.30;;;4.80;;
25846;SDS011;13676;50.168;8.568;2022-08-25T05:36:22;12.43;;;4.65;;
25846;SDS011;13676;50.168;8.568;2022-08-25T05:38:48;6.30;;;4.82;;
25846;SDS011;13676;50.168;8.568;2022-08-25T05:41:15;9.23;;;5.20;;
25846;SDS011;13676;50.168;8.568;2022-08-25T05:43:42;7.82;;;4.78;;
25846;SDS011;13676;50.168;8.568;2022-08-25T05:46:09;9.23;;;5.43;;
25846;SDS011;13676;50.168;8.568;2022-08-25T05:48:35;7.80;;;5.13;;
25846;SDS011;13676;50.168;8.568;2022-08-25T05:51:02;8.60;;;4.82;;
25846;SDS011;13676;50.168;8.568;2022-08-25T05:53:29;6.68;;;4.90;;
25846;SDS011;13676;50.168;8.568;2022-08-25T05:55:55;7.05;;;5.13;;
25846;SDS011;13676;50.168;8.568;2022-08-25T05:58:21;8.05;;;4.85;;
25846;SDS011;13676;50.168;8.568;2022-08-25T06:00:48;9.73;;;5.72;;
25846;SDS011;13676;50.168;8.568;2022-08-25T06:03:14;7.13;;;4.25;;
25846;SDS011;13676;50.168;8.568;2022-08-25T06:05:39;7.35;;;5.50;;
25846;SDS011;13676;50.168;8.568;2022-08-25T06:08:05;9.60;;;5.53;;
25846;SDS011;13676;50.168;8.568;2022-08-25T06:10:31;11.05;;;5.47;;
25846;SDS011;13676;50.168;8.568;2022-08-25T06:12:57;9.32;;;5.60;;
25846;SDS011;13676;50.168;8.568;2022-08-25T06:15:23;6.95;;;5.60;;
25846;SDS011;13676;50.168;8.568;2022-08-25T06:17:49;7.73;;;5.43;;
25846;SDS011;13676;50.168;8.568;2022-08-25T06:20:16;7.93;;;5.73;;
25846;SDS011;13676;50.168;8.568;2022-08-25T06:22:43;5.95;;;5.20;;
25846;SDS011;13676;50.168;8.568;2022-08-25T06:25:09;5.82;;;4.93;;
25846;SDS011;13676;50.168;8.568;2022-08-25T06:27:36;7.90;;;5.55;;
25846;SDS011;13676;50.168;8.568;2022-08-25T06:30:03;7.43;;;4.78;;
25846;SDS011;13676;50.168;8.568;2022-08-25T06:32:30;6.75;;;4.88;;
25846;SDS011;13676;50.168;8.568;2022-08-25T06:34:56;8.43;;;5.67;;
25846;SDS011;13676;50.168;8.568;2022-08-25T06:37:23;6.90;;;5.18;;
25846;SDS011;13676;50.168;8.568;2022-08-25T06:39:48;5.55;;;4.78;;
25846;SDS011;13676;50.168;8.568;2022-08-25T06:42:14;5.97;;;4.50;;
25846;SDS011;13676;50.168;8.568;2022-08-25T06:44:39;6.57;;;4.82;;
25846;SDS011;13676;50.168;8.568;2022-08-25T06:47:05;5.47;;;4.70;;
25846;SDS011;13676;50.168;8.568;2022-08-25T06:49:30;6.72;;;4.78;;
25846;SDS011;13676;50.168;8.568;2022-08-25T06:51:55;7.18;;;4.75;;
25846;SDS011;13676;50.168;8.568;2022-08-25T06:54:21;9.02;;;4.82;;
25846;SDS011;13676;50.168;8.568;2022-08-25T06:56:46;6.75;;;4.45;;
25846;SDS011;13676;50.168;8.568;2022-08-25T06:59:12;9.15;;;5.22;;
25846;SDS011;13676;50.168;8.568;2022-08-25T07:01:38;6.90;;;5.03;;
25846;SDS011;13676;50.168;8.568;2022-08-25T07:04:04;6.03;;;4.97;;
25846;SDS011;13676;50.168;8.568;2022-08-25T07:06:31;5.57;;;4.83;;
25846;SDS011;13676;50.168;8.568;2022-08-25T07:08:59;7.70;;;5.30;;
25846;SDS011;13676;50.168;8.568;2022-08-25T07:11:24;8.43;;;5.10;;
25846;SDS011;13676;50.168;8.568;2022-08-25T07:13:50;8.43;;;5.60;;
25846;SDS011;13676;50.168;8.568;2022-08-25T07:16:16;8.40;;;5.72;;
25846;SDS011;13676;50.168;8.568;2022-08-25T07:18:43;10.82;;;6.70;;
25846;SDS011;13676;50.168;8.568;2022-08-25T07:21:09;8.97;;;5.80;;
25846;SDS011;13676;50.168;8.568;2022-08-25T07:23:35;7.15;;;5.40;;
25846;SDS011;13676;50.168;8.568;2022-08-25T07:28:54;10.20;;;5.57;;
25846;SDS011;13676;50.168;8.568;2022-08-25T07:31:20;8.48;;;5.90;;
25846;SDS011;13676;50.168;8.568;2022-08-25T07:33:45;7.53;;;4.78;;
25846;SDS011;13676;50.168;8.568;2022-08-25T07:36:29;7.72;;;5.63;;
25846;SDS011;13676;50.168;8.568;2022-08-25T07:38:56;5.88;;;5.20;;
25846;SDS011;13676;50.168;8.568;2022-08-25T07:41:22;5.53;;;4.90;;
25846;SDS011;13676;50.168;8.568;2022-08-25T07:43:48;9.93;;;6.05;;
25846;SDS011;13676;50.168;8.568;2022-08-25T07:46:13;14.30;;;5.90;;
25846;SDS011;13676;50.168;8.568;2022-08-25T07:48:39;5.57;;;4.90;;
25846;SDS011;13676;50.168;8.568;2022-08-25T07:51:08;8.02;;;4.85;;
25846;SDS011;13676;50.168;8.568;2022-08-25T07:53:35;6.30;;;5.00;;
25846;SDS011;13676;50.168;8.568;2022-08-25T07:56:00;6.47;;;4.13;;
25846;SDS011;13676;50.168;8.568;2022-08-25T07:58:26;7.28;;;5.18;;
25846;SDS011;13676;50.168;8.568;2022-08-25T08:00:51;5.25;;;4.75;;
25846;SDS011;13676;50.168;8.568;2022-08-25T08:03:17;4.82;;;4.28;;
25846;SDS011;13676;50.168;8.568;2022-08-25T08:05:43;5.60;;;4.45;;
25846;SDS011;13676;50.168;8.568;2022-08-25T08:08:08;6.45;;;3.92;;
25846;SDS011;13676;50.168;8.568;2022-08-25T08:10:34;7.88;;;4.80;;
25846;SDS011;13676;50.168;8.568;2022-08-25T08:13:03;8.98;;;4.90;;
25846;SDS011;13676;50.168;8.568;2022-08-25T08:15:29;6.22;;;4.45;;
25846;SDS011;13676;50.168;8.568;2022-08-25T08:17:54;8.98;;;5.03;;
25846;SDS011;13676;50.168;8.568;2022-08-25T08:20:20;10.30;;;5.43;;
25846;SDS011;13676;50.168;8.568;2022-08-25T08:22:45;5.43;;;4.30;;
25846;SDS011;13676;50.168;8.568;2022-08-25T08:25:11;6.15;;;4.72;;
25846;SDS011;13676;50.168;8.568;2022-08-25T08:27:36;5.68;;;4.45;;
25846;SDS011;13676;50.168;8.568;2022-08-25T08:30:03;7.07;;;4.40;;
25846;SDS011;13676;50.168;8.568;2022-08-25T08:32:30;8.95;;;4.20;;
25846;SDS011;13676;50.168;8.568;2022-08-25T08:34:55;7.40;;;4.50;;
25846;SDS011;13676;50.168;8.568;2022-08-25T08:37:21;8.75;;;3.97;;
25846;SDS011;13676;50.168;8.568;2022-08-25T08:39:47;6.03;;;4.20;;
25846;SDS011;13676;50.168;8.568;2022-08-25T08:50:05;6.47;;;3.58;;
25846;SDS011;13676;50.168;8.568;2022-08-25T08:55:32;9.10;;;3.95;;
25846;SDS011;13676;50.168;8.568;2022-08-25T08:58:07;8.27;;;4.75;;
25846;SDS011;13676;50.168;8.568;2022-08-25T09:00:45;6.50;;;4.10;;
25846;SDS011;13676;50.168;8.568;2022-08-25T09:03:38;6.03;;;3.40;;
25846;SDS011;13676;50.168;8.568;2022-08-25T09:06:08;8.43;;;4.53;;
25846;SDS011;13676;50.168;8.568;2022-08-25T09:08:36;6.53;;;3.88;;
25846;SDS011;13676;50.168;8.568;2022-08-25T09:11:08;4.82;;;3.80;;
25846;SDS011;13676;50.168;8.568;2022-08-25T09:27:09;5.57;;;3.08;;
25846;SDS011;13676;50.168;8.568;2022-08-25T09:32:10;6.03;;;4.03;;
25846;SDS011;13676;50.168;8.568;2022-08-25T09:34:35;6.28;;;4.05;;
25846;SDS011;13676;50.168;8.568;2022-08-25T09:37:01;6.22;;;3.72;;
25846;SDS011;13676;50.168;8.568;2022-08-25T09:39:27;5.95;;;3.90;;
25846;SDS011;13676;50.168;8.568;2022-08-25T09:41:53;5.18;;;3.67;;
25846;SDS011;13676;50.168;8.568;2022-08-25T09:46:54;5.38;;;3.17;;
25846;SDS011;13676;50.168;8.568;2022-08-25T09:49:33;5.28;;;3.85;;
25846;SDS011;13676;50.168;8.568;2022-08-25T10:00:19;4.05;;;2.83;;
25846;SDS011;13676;50.168;8.568;2022-08-25T10:05:26;4.57;;;3.45;;
25846;SDS011;13676;50.168;8.568;2022-08-25T10:07:54;4.60;;;3.00;;
25846;SDS011;13676;50.168;8.568;2022-08-25T10:10:22;6.40;;;3.22;;
25846;SDS011;13676;50.168;8.568;2022-08-25T10:12:56;4.70;;;3.30;;
25846;SDS011;13676;50.168;8.568;2022-08-25T10:17:53;5.78;;;3.53;;
25846;SDS011;13676;50.168;8.568;2022-08-25T10:20:20;7.15;;;3.45;;
25846;SDS011;13676;50.168;8.568;2022-08-25T10:22:49;6.57;;;3.47;;
25846;SDS011;13676;50.168;8.568;2022-08-25T10:25:15;4.38;;;3.42;;
25846;SDS011;13676;50.168;8.568;2022-08-25T10:41:25;5.88;;;4.00;;
25846;SDS011;13676;50.168;8.568;2022-08-25T10:44:09;7.43;;;3.60;;
25846;SDS011;13676;50.168;8.568;2022-08-25T10:50:04;7.30;;;3.40;;
25846;SDS011;13676;50.168;8.568;2022-08-25T10:52:42;4.43;;;3.85;;
25846;SDS011;13676;50.168;8.568;2022-08-25T10:55:17;5.70;;;4.07;;
25846;SDS011;13676;50.168;8.568;2022-08-25T10:58:08;5.35;;;3.60;;
25846;SDS011;13676;50.168;8.568;2022-08-25T11:01:06;4.15;;;3.45;;
25846;SDS011;13676;50.168;8.568;2022-08-25T11:03:53;5.32;;;3.97;;
25846;SDS011;13676;50.168;8.568;2022-08-25T11:06:24;11.80;;;3.73;;
25846;SDS011;13676;50.168;8.568;2022-08-25T11:08:58;6.45;;;3.40;;
25846;SDS011;13676;50.168;8.568;2022-08-25T11:11:35;6.35;;;3.65;;
25846;SDS011;13676;50.168;8.568;2022-08-25T11:14:04;3.90;;;3.10;;
25846;SDS011;13676;50.168;8.568;2022-08-25T11:16:37;4.80;;;3.10;;
25846;SDS011;13676;50.168;8.568;2022-08-25T11:19:06;3.42;;;3.13;;
25846;SDS011;13676;50.168;8.568;2022-08-25T11:24:21;4.22;;;3.72;;
25846;SDS011;13676;50.168;8.568;2022-08-25T11:26:52;5.20;;;3.60;;
25846;SDS011;13676;50.168;8.568;2022-08-25T11:29:20;4.03;;;2.90;;
25846;SDS011;13676;50.168;8.568;2022-08-25T11:31:47;8.50;;;4.07;;
25846;SDS011;13676;50.168;8.568;2022-08-25T11:34:14;8.77;;;4.13;;
25846;SDS011;13676;50.168;8.568;2022-08-25T11:36:41;7.68;;;4.15;;
25846;SDS011;13676;50.168;8.568;2022-08-25T11:47:44;4.45;;;3.83;;
25846;SDS011;13676;50.168;8.568;2022-08-25T11:52:51;4.50;;;3.80;;
25846;SDS011;13676;50.168;8.568;2022-08-25T11:55:28;4.38;;;3.50;;
25846;SDS011;13676;50.168;8.568;2022-08-25T12:00:45;5.05;;;4.07;;
25846;SDS011;13676;50.168;8.568;2022-08-25T12:08:53;5.43;;;3.78;;
25846;SDS011;13676;50.168;8.568;2022-08-25T12:11:41;4.45;;;3.22;;
25846;SDS011;13676;50.168;8.568;2022-08-25T12:16:43;5.53;;;3.35;;
25846;SDS011;13676;50.168;8.568;2022-08-25T12:35:31;4.45;;;3.30;;
25846;SDS011;13676;50.168;8.568;2022-08-25T12:38:11;6.32;;;2.92;;
25846;SDS011;13676;50.168;8.568;2022-08-25T12:45:45;5.38;;;3.25;;
25846;SDS011;13676;50.168;8.568;2022-08-25T12:50:55;3.47;;;2.83;;
25846;SDS011;13676;50.168;8.568;2022-08-25T12:53:35;3.63;;;3.00;;
25846;SDS011;13676;50.168;8.568;2022-08-25T13:10:23;4.32;;;3.60;;
25846;SDS011;13676;50.168;8.568;2022-08-25T13:15:26;3.97;;;2.90;;
25846;SDS011;13676;50.168;8.568;2022-08-25T13:17:53;6.60;;;3.03;;
25846;SDS011;13676;50.168;8.568;2022-08-25T13:20:22;4.40;;;3.33;;
25846;SDS011;13676;50.168;8.568;2022-08-25T13:22:50;5.30;;;3.10;;
25846;SDS011;13676;50.168;8.568;2022-08-25T13:27:42;5.38;;;3.35;;
25846;SDS011;13676;50.168;8.568;2022-08-25T13:33:17;3.28;;;2.80;;
25846;SDS011;13676;50.168;8.568;2022-08-25T13:35:48;4.32;;;2.90;;
25846;SDS011;13676;50.168;8.568;2022-08-25T13:38:35;3.53;;;2.75;;
25846;SDS011;13676;50.168;8.568;2022-08-25T13:41:01;3.85;;;3.17;;
25846;SDS011;13676;50.168;8.568;2022-08-25T13:43:27;2.60;;;2.40;;
25846;SDS011;13676;50.168;8.568;2022-08-25T13:45:53;5.60;;;2.33;;
25846;SDS011;13676;50.168;8.568;2022-08-25T13:48:32;4.82;;;3.38;;
25846;SDS011;13676;50.168;8.568;2022-08-25T13:53:46;3.58;;;2.80;;
25846;SDS011;13676;50.168;8.568;2022-08-25T13:56:29;5.35;;;3.00;;
25846;SDS011;13676;50.168;8.568;2022-08-25T13:58:57;3.22;;;2.42;;
25846;SDS011;13676;50.168;8.568;2022-08-25T14:03:52;4.63;;;3.10;;
25846;SDS011;13676;50.168;8.568;2022-08-25T14:06:21;3.47;;;3.00;;
25846;SDS011;13676;50.168;8.568;2022-08-25T14:14:05;4.43;;;3.38;;
25846;SDS011;13676;50.168;8.568;2022-08-25T14:16:36;3.45;;;2.78;;
25846;SDS011;13676;50.168;8.568;2022-08-25T14:19:03;3.40;;;2.80;;
25846;SDS011;13676;50.168;8.568;2022-08-25T14:21:30;3.67;;;2.80;;
25846;SDS011;13676;50.168;8.568;2022-08-25T14:23:56;3.70;;;2.53;;
25846;SDS011;13676;50.168;8.568;2022-08-25T14:26:22;3.50;;;2.20;;
25846;SDS011;13676;50.168;8.568;2022-08-25T14:28:48;5.03;;;2.90;;
25846;SDS011;13676;50.168;8.568;2022-08-25T14:31:16;3.13;;;2.83;;
25846;SDS011;13676;50.168;8.568;2022-08-25T14:33:57;6.25;;;2.75;;
25846;SDS011;13676;50.168;8.568;2022-08-25T14:36:25;3.50;;;3.08;;
25846;SDS011;13676;50.168;8.568;2022-08-25T14:38:53;4.03;;;2.95;;
25846;SDS011;13676;50.168;8.568;2022-08-25T14:41:19;2.90;;;2.28;;
25846;SDS011;13676;50.168;8.568;2022-08-25T14:43:45;4.35;;;2.92;;
25846;SDS011;13676;50.168;8.568;2022-08-25T14:46:20;3.80;;;2.50;;
25846;SDS011;13676;50.168;8.568;2022-08-25T14:51:19;3.90;;;2.60;;
25846;SDS011;13676;50.168;8.568;2022-08-25T14:53:45;3.00;;;2.30;;
25846;SDS011;13676;50.168;8.568;2022-08-25T14:56:11;3.03;;;2.20;;
25846;SDS011;13676;50.168;8.568;2022-08-25T14:58:37;2.65;;;2.22;;
25846;SDS011;13676;50.168;8.568;2022-08-25T15:01:04;3.28;;;2.28;;
25846;SDS011;13676;50.168;8.568;2022-08-25T15:03:31;4.43;;;2.92;;
25846;SDS011;13676;50.168;8.568;2022-08-25T15:05:59;10.82;;;2.65;;
25846;SDS011;13676;50.168;8.568;2022-08-25T15:08:25;6.43;;;2.88;;
25846;SDS011;13676;50.168;8.568;2022-08-25T15:11:09;2.60;;;2.40;;
25846;SDS011;13676;50.168;8.568;2022-08-25T15:13:34;6.40;;;3.78;;
25846;SDS011;13676;50.168;8.568;2022-08-25T15:16:00;3.08;;;2.55;;
25846;SDS011;13676;50.168;8.568;2022-08-25T15:18:25;3.83;;;2.70;;
25846;SDS011;13676;50.168;8.568;2022-08-25T15:20:51;2.90;;;2.55;;
25846;SDS011;13676;50.168;8.568;2022-08-25T15:23:17;3.72;;;2.45;;
25846;SDS011;13676;50.168;8.568;2022-08-25T15:25:43;5.13;;;2.83;;
25846;SDS011;13676;50.168;8.568;2022-08-25T15:28:09;5.97;;;3.10;;
25846;SDS011;13676;50.168;8.568;2022-08-25T15:30:35;3.17;;;2.50;;
25846;SDS011;13676;50.168;8.568;2022-08-25T15:33:00;3.88;;;2.33;;
25846;SDS011;13676;50.168;8.568;2022-08-25T15:35:26;2.72;;;2.17;;
25846;SDS011;13676;50.168;8.568;2022-08-25T15:37:51;2.88;;;2.40;;
25846;SDS011;13676;50.168;8.568;2022-08-25T15:40:17;5.03;;;2.15;;
25846;SDS011;13676;50.168;8.568;2022-08-25T15:42:43;4.25;;;2.70;;
25846;SDS011;13676;50.168;8.568;2022-08-25T15:45:08;2.65;;;2.35;;
25846;SDS011;13676;50.168;8.568;2022-08-25T15:47:34;3.80;;;2.53;;
25846;SDS011;13676;50.168;8.568;2022-08-25T15:50:07;2.80;;;2.47;;
25846;SDS011;13676;50.168;8.568;2022-08-25T15:52:34;4.05;;;2.22;;
25846;SDS011;13676;50.168;8.568;2022-08-25T15:55:00;4.78;;;2.80;;
25846;SDS011;13676;50.168;8.568;2022-08-25T15:57:26;3.60;;;2.60;;
25846;SDS011;13676;50.168;8.568;2022-08-25T15:59:51;2.67;;;2.33;;
25846;SDS011;13676;50.168;8.568;2022-08-25T16:02:17;5.55;;;3.10;;
25846;SDS011;13676;50.168;8.568;2022-08-25T16:04:42;4.82;;;2.80;;
25846;SDS011;13676;50.168;8.568;2022-08-25T16:07:08;4.27;;;2.20;;
25846;SDS011;13676;50.168;8.568;2022-08-25T16:09:34;3.13;;;2.30;;
25846;SDS011;13676;50.168;8.568;2022-08-25T16:11:59;2.40;;;2.20;;
25846;SDS011;13676;50.168;8.568;2022-08-25T16:14:25;2.20;;;1.98;;
25846;SDS011;13676;50.168;8.568;2022-08-25T16:16:51;3.38;;;2.22;;
25846;SDS011;13676;50.168;8.568;2022-08-25T16:19:16;2.70;;;2.03;;
25846;SDS011;13676;50.168;8.568;2022-08-25T16:21:42;4.00;;;2.50;;
25846;SDS011;13676;50.168;8.568;2022-08-25T16:24:08;3.83;;;2.85;;
25846;SDS011;13676;50.168;8.568;2022-08-25T16:26:34;2.85;;;2.47;;
25846;SDS011;13676;50.168;8.568;2022-08-25T16:29:00;3.65;;;2.42;;
25846;SDS011;13676;50.168;8.568;2022-08-25T16:31:27;3.90;;;2.47;;
25846;SDS011;13676;50.168;8.568;2022-08-25T16:33:52;5.03;;;2.80;;
25846;SDS011;13676;50.168;8.568;2022-08-25T16:36:19;2.97;;;2.40;;
25846;SDS011;13676;50.168;8.568;2022-08-25T16:38:46;5.57;;;2.85;;
25846;SDS011;13676;50.168;8.568;2022-08-25T16:41:14;3.08;;;2.63;;
25846;SDS011;13676;50.168;8.568;2022-08-25T16:43:43;3.45;;;2.58;;
25846;SDS011;13676;50.168;8.568;2022-08-25T16:46:10;2.85;;;2.20;;
25846;SDS011;13676;50.168;8.568;2022-08-25T16:48:38;2.78;;;2.47;;
25846;SDS011;13676;50.168;8.568;2022-08-25T16:51:07;4.87;;;2.40;;
25846;SDS011;13676;50.168;8.568;2022-08-25T16:53:33;4.40;;;2.42;;
25846;SDS011;13676;50.168;8.568;2022-08-25T16:56:17;2.63;;;2.22;;
25846;SDS011;13676;50.168;8.568;2022-08-25T16:58:48;3.03;;;2.20;;
25846;SDS011;13676;50.168;8.568;2022-08-25T17:01:23;2.50;;;2.20;;
25846;SDS011;13676;50.168;8.568;2022-08-25T17:03:50;3.80;;;2.33;;
25846;SDS011;13676;50.168;8.568;2022-08-25T17:06:16;2.40;;;2.00;;
25846;SDS011;13676;50.168;8.568;2022-08-25T17:08:42;4.50;;;2.15;;
25846;SDS011;13676;50.168;8.568;2022-08-25T17:13:34;2.75;;;2.33;;
25846;SDS011;13676;50.168;8.568;2022-08-25T17:15:59;2.60;;;2.08;;
25846;SDS011;13676;50.168;8.568;2022-08-25T17:18:26;2.80;;;2.28;;
25846;SDS011;13676;50.168;8.568;2022-08-25T17:21:03;2.33;;;1.80;;
25846;SDS011;13676;50.168;8.568;2022-08-25T17:23:30;2.08;;;1.88;;
25846;SDS011;13676;50.168;8.568;2022-08-25T17:25:56;2.88;;;2.15;;
25846;SDS011;13676;50.168;8.568;2022-08-25T17:28:22;2.03;;;1.73;;
25846;SDS011;13676;50.168;8.568;2022-08-25T17:30:48;3.47;;;2.00;;
25846;SDS011;13676;50.168;8.568;2022-08-25T17:33:14;1.83;;;1.63;;